Time;durP1;ratioP1;P1;durP2;ratioP2;P2;SDS_P1;SDS_P2;PMS_P1;PMS_P2;Temp;Humidity;BMP_temperature;BMP_pressure;BME280_temperature;BME280_humidity;BME280_pressure;Samples;Min_cycle;Max_cycle;Signal;HPM_P1;HPM_P2
2024/01/04 00:01:38;;;;;;;1.53;1.10;;;9.40;98.00;;;;;;5053545;28;20513;-67
2024/01/04 00:04:05;;;;;;;2.37;1.20;;;9.40;98.00;;;;;;5053612;28;20457;-67
2024/01/04 00:06:32;;;;;;;2.20;1.17;;;9.40;98.00;;;;;;5053560;28;20466;-67
2024/01/04 00:08:59;;;;;;;2.80;1.30;;;9.40;98.00;;;;;;5052724;28;20862;-66
2024/01/04 00:11:28;;;;;;;1.20;1.00;;;9.30;98.00;;;;;;5053655;28;20461;-67
2024/01/04 00:13:55;;;;;;;1.30;1.00;;;9.30;98.00;;;;;;5053345;28;20473;-67
2024/01/04 00:16:22;;;;;;;1.40;1.20;;;9.20;98.00;;;;;;5053218;28;20454;-67
2024/01/04 00:18:49;;;;;;;1.30;1.03;;;9.20;98.00;;;;;;5035306;28;20457;-67
2024/01/04 00:21:16;;;;;;;1.93;1.10;;;9.20;98.00;;;;;;5053238;28;20532;-67
2024/01/04 00:23:43;;;;;;;2.23;1.30;;;9.10;98.00;;;;;;5052665;28;20460;-67
2024/01/04 00:26:11;;;;;;;2.73;1.00;;;9.20;98.00;;;;;;5052976;28;20505;-66
2024/01/04 00:28:40;;;;;;;1.20;1.10;;;9.10;98.00;;;;;;5035485;28;20450;-66
2024/01/04 00:31:07;;;;;;;1.70;1.30;;;9.10;98.00;;;;;;5018895;28;20461;-67
2024/01/04 00:33:35;;;;;;;2.63;1.10;;;9.10;98.00;;;;;;5052843;28;20445;-67
2024/01/04 00:36:02;;;;;;;1.30;1.10;;;9.00;98.00;;;;;;5052794;28;20512;-67
2024/01/04 00:38:29;;;;;;;2.00;1.40;;;9.10;98.00;;;;;;5052835;28;20461;-68
2024/01/04 00:40:56;;;;;;;1.37;1.10;;;9.10;98.00;;;;;;5052621;28;20452;-66
2024/01/04 00:43:23;;;;;;;1.40;1.07;;;9.10;98.00;;;;;;5052774;28;20519;-67
2024/01/04 00:45:51;;;;;;;1.27;1.20;;;9.00;98.00;;;;;;5052496;28;20477;-67
2024/01/04 00:48:19;;;;;;;1.97;1.20;;;8.90;98.00;;;;;;5052769;28;20958;-66
2024/01/04 00:50:46;;;;;;;2.73;1.17;;;9.00;98.00;;;;;;5052655;28;20453;-66
2024/01/04 00:53:16;;;;;;;3.03;1.43;;;8.90;98.00;;;;;;5052624;28;20534;-67
2024/01/04 00:55:43;;;;;;;1.70;1.30;;;8.90;98.00;;;;;;5052689;28;20454;-66
2024/01/04 00:58:10;;;;;;;1.20;1.10;;;8.80;98.00;;;;;;5052577;28;20454;-67
2024/01/04 01:00:37;;;;;;;2.40;1.10;;;8.80;98.00;;;;;;5034950;28;20455;-67
2024/01/04 01:03:06;;;;;;;1.97;1.50;;;8.80;98.00;;;;;;5052350;28;20943;-66
2024/01/04 01:05:33;;;;;;;1.67;1.20;;;8.90;98.00;;;;;;5052061;28;20859;-67
2024/01/04 01:08:01;;;;;;;3.73;1.27;;;8.90;98.00;;;;;;5034523;28;20479;-66
2024/01/04 01:10:29;;;;;;;1.30;1.20;;;8.90;98.00;;;;;;5034579;28;20540;-67
2024/01/04 01:12:56;;;;;;;2.27;1.73;;;8.90;98.00;;;;;;5052120;28;20453;-66
2024/01/04 01:15:23;;;;;;;2.70;1.30;;;8.90;98.00;;;;;;5052109;28;20455;-66
2024/01/04 01:17:50;;;;;;;2.40;1.37;;;8.80;98.00;;;;;;5052164;28;20454;-66
2024/01/04 01:20:19;;;;;;;1.70;1.20;;;8.80;98.00;;;;;;5052179;28;20467;-66
2024/01/04 01:22:46;;;;;;;2.30;1.20;;;8.70;98.00;;;;;;5051942;28;20449;-66
2024/01/04 01:25:14;;;;;;;1.40;1.23;;;8.70;98.00;;;;;;5034309;28;20504;-67
2024/01/04 01:27:41;;;;;;;3.47;1.17;;;8.70;98.00;;;;;;5051815;28;20643;-67
2024/01/04 01:30:09;;;;;;;3.20;1.30;;;8.60;98.00;;;;;;5034220;28;20673;-67
2024/01/04 01:32:36;;;;;;;1.93;1.30;;;8.50;98.00;;;;;;5051965;28;20454;-67
2024/01/04 01:35:03;;;;;;;1.60;1.23;;;8.40;98.00;;;;;;5051992;28;20720;-66
2024/01/04 01:37:31;;;;;;;1.50;1.30;;;8.30;98.00;;;;;;5034205;28;20458;-66
2024/01/04 01:39:58;;;;;;;1.30;1.10;;;8.40;98.00;;;;;;5051727;28;20464;-67
2024/01/04 01:42:25;;;;;;;1.20;1.10;;;8.50;98.00;;;;;;5051685;28;20512;-66
2024/01/04 01:44:53;;;;;;;1.20;1.10;;;8.50;98.00;;;;;;5033730;28;20974;-67
2024/01/04 01:47:22;;;;;;;3.03;1.40;;;8.30;98.00;;;;;;5051563;28;20811;-66
2024/01/04 01:49:49;;;;;;;2.90;1.27;;;8.40;98.00;;;;;;5051565;28;20487;-67
2024/01/04 01:52:18;;;;;;;5.20;1.40;;;8.30;98.00;;;;;;5051548;28;20464;-66
2024/01/04 01:54:47;;;;;;;2.90;1.33;;;8.30;98.00;;;;;;5051399;28;20467;-67
2024/01/04 01:57:15;;;;;;;1.30;1.10;;;8.30;98.00;;;;;;5051508;28;20503;-66
2024/01/04 01:59:44;;;;;;;1.87;1.10;;;8.40;98.00;;;;;;5034138;28;20461;-67
2024/01/04 02:02:11;;;;;;;1.47;1.20;;;8.40;98.00;;;;;;5051799;28;20464;-66
2024/01/04 02:04:40;;;;;;;5.63;1.13;;;8.40;98.00;;;;;;5051308;28;20469;-66
2024/01/04 02:07:08;;;;;;;1.20;1.10;;;8.30;98.00;;;;;;5017339;28;20453;-67
2024/01/04 02:09:35;;;;;;;1.30;1.13;;;8.30;98.00;;;;;;5051416;28;20457;-67
2024/01/04 02:12:10;;;;;;;1.77;1.17;;;8.30;98.00;;;;;;5051072;28;21021;-66
2024/01/04 02:14:38;;;;;;;2.50;1.53;;;8.30;98.00;;;;;;5051205;28;20450;-66
2024/01/04 02:17:05;;;;;;;1.40;1.10;;;8.30;98.00;;;;;;5050961;28;20558;-66
2024/01/04 02:19:33;;;;;;;3.50;1.37;;;8.30;98.00;;;;;;5051088;28;20809;-66
2024/01/04 02:22:01;;;;;;;1.20;1.20;;;8.30;98.00;;;;;;5050975;28;20459;-66
2024/01/04 02:24:29;;;;;;;3.57;1.30;;;8.20;98.00;;;;;;5033393;28;20455;-66
2024/01/04 02:26:56;;;;;;;2.80;1.20;;;8.20;98.00;;;;;;5050641;28;21006;-66
2024/01/04 02:29:23;;;;;;;3.63;1.13;;;8.10;98.00;;;;;;5033384;28;20452;-67
2024/01/04 02:31:51;;;;;;;4.40;1.20;;;8.10;98.00;;;;;;5016127;28;20799;-67
2024/01/04 02:34:22;;;;;;;6.13;1.60;;;8.10;98.00;;;;;;5050733;28;20455;-66
2024/01/04 02:36:49;;;;;;;1.27;0.97;;;8.10;98.00;;;;;;5032863;28;20545;-66
2024/01/04 02:39:24;;;;;;;1.50;1.00;;;8.10;98.00;;;;;;5050969;28;20455;-67
2024/01/04 02:41:52;;;;;;;2.53;1.20;;;8.00;98.00;;;;;;5034172;28;20941;-67
2024/01/04 02:44:19;;;;;;;1.10;1.00;;;8.00;98.00;;;;;;5050671;28;20455;-67
2024/01/04 02:46:48;;;;;;;1.40;1.00;;;8.00;98.00;;;;;;5050600;28;20492;-67
2024/01/04 02:49:15;;;;;;;1.10;1.00;;;8.00;98.00;;;;;;5050818;28;20503;-66
2024/01/04 02:51:42;;;;;;;2.37;1.23;;;8.00;98.00;;;;;;5050652;28;20455;-66
2024/01/04 02:54:09;;;;;;;2.80;1.17;;;8.10;98.00;;;;;;5050612;28;20453;-66
2024/01/04 02:56:36;;;;;;;1.10;1.00;;;8.00;98.00;;;;;;5050629;28;20452;-66
2024/01/04 02:59:04;;;;;;;2.23;1.10;;;8.00;98.00;;;;;;5050750;28;20459;-66
2024/01/04 03:01:31;;;;;;;1.10;0.90;;;7.90;98.00;;;;;;5050528;28;20460;-67
2024/01/04 03:03:58;;;;;;;1.10;1.00;;;7.90;98.00;;;;;;5050598;28;20459;-67
2024/01/04 03:06:30;;;;;;;1.40;1.10;;;7.90;98.00;;;;;;5032744;28;20503;-67
2024/01/04 03:08:57;;;;;;;2.27;1.10;;;7.90;98.00;;;;;;5050709;28;20448;-67
2024/01/04 03:11:24;;;;;;;1.20;1.10;;;7.90;98.00;;;;;;5050708;28;20818;-67
2024/01/04 03:13:51;;;;;;;1.10;1.00;;;7.90;98.00;;;;;;5050480;28;20465;-67
2024/01/04 03:16:21;;;;;;;1.40;1.00;;;7.90;98.00;;;;;;5050564;28;20447;-67
2024/01/04 03:18:48;;;;;;;1.30;1.10;;;7.90;98.00;;;;;;5050417;28;20482;-66
2024/01/04 03:21:17;;;;;;;1.10;1.00;;;7.80;98.00;;;;;;5050559;28;20454;-66
2024/01/04 03:23:44;;;;;;;1.10;1.00;;;7.80;98.00;;;;;;5033059;28;20486;-67
2024/01/04 03:26:13;;;;;;;1.10;1.00;;;7.80;98.00;;;;;;5050435;28;20849;-66
2024/01/04 03:28:40;;;;;;;1.20;1.00;;;7.80;98.00;;;;;;5050433;28;20461;-66
2024/01/04 03:31:06;;;;;;;1.20;1.00;;;7.90;98.00;;;;;;5050334;28;20503;-67
2024/01/04 03:33:34;;;;;;;1.20;1.00;;;7.90;98.00;;;;;;5050497;28;20599;-66
2024/01/04 03:36:01;;;;;;;1.50;1.00;;;7.90;98.00;;;;;;5050300;28;20507;-66
2024/01/04 03:38:28;;;;;;;1.53;1.00;;;7.90;98.00;;;;;;5050681;28;20511;-66
2024/01/04 03:40:55;;;;;;;1.27;1.00;;;7.90;98.00;;;;;;5032683;28;20487;-67
2024/01/04 03:43:22;;;;;;;1.10;1.00;;;7.90;98.00;;;;;;5051788;28;20447;-66
2024/01/04 03:45:49;;;;;;;1.10;1.00;;;7.90;98.00;;;;;;5036084;28;21009;-67
2024/01/04 03:48:16;;;;;;;1.10;0.90;;;7.90;98.00;;;;;;5054096;28;20448;-66
2024/01/04 03:50:45;;;;;;;1.10;1.10;;;8.00;98.00;;;;;;5053914;28;20464;-66
2024/01/04 03:53:12;;;;;;;4.30;1.10;;;8.00;98.00;;;;;;5053840;28;20455;-66
2024/01/04 03:55:39;;;;;;;1.10;1.10;;;7.90;98.00;;;;;;5053722;28;20509;-66
2024/01/04 03:58:06;;;;;;;4.93;1.10;;;7.90;98.00;;;;;;5053745;28;20457;-67
2024/01/04 04:00:33;;;;;;;1.20;1.00;;;7.90;98.00;;;;;;5053755;28;20461;-66
2024/01/04 04:03:00;;;;;;;1.53;1.10;;;8.00;98.00;;;;;;5053395;28;20497;-67
2024/01/04 04:05:27;;;;;;;2.33;1.00;;;8.00;98.00;;;;;;5053328;28;20472;-66
2024/01/04 04:07:55;;;;;;;1.20;0.90;;;7.90;98.00;;;;;;5053379;28;20458;-67
2024/01/04 04:10:23;;;;;;;1.23;1.00;;;7.90;98.00;;;;;;5053568;28;20502;-66
2024/01/04 04:12:50;;;;;;;1.20;1.00;;;7.90;98.00;;;;;;5053281;28;20547;-66
2024/01/04 04:15:24;;;;;;;2.70;1.10;;;7.90;98.00;;;;;;5053459;28;20451;-66
2024/01/04 04:17:51;;;;;;;1.10;0.97;;;7.90;98.00;;;;;;5036510;28;20583;-66
2024/01/04 04:20:18;;;;;;;1.67;1.17;;;7.90;98.00;;;;;;5053446;28;20461;-66
2024/01/04 04:22:45;;;;;;;1.10;1.00;;;7.90;98.00;;;;;;5053058;28;20463;-67
2024/01/04 04:25:14;;;;;;;1.30;1.00;;;7.90;98.00;;;;;;5052957;28;20456;-67
2024/01/04 04:27:41;;;;;;;1.30;1.10;;;7.90;98.00;;;;;;5052960;28;20495;-67
2024/01/04 04:30:09;;;;;;;1.83;1.20;;;8.00;98.00;;;;;;5052951;28;20451;-66
2024/01/04 04:32:37;;;;;;;6.90;1.20;;;8.00;98.00;;;;;;5035330;28;20452;-66
2024/01/04 04:35:05;;;;;;;1.20;1.00;;;8.10;98.00;;;;;;5035303;28;20455;-66
2024/01/04 04:37:32;;;;;;;1.23;1.00;;;8.10;98.00;;;;;;5053025;28;20511;-66
2024/01/04 04:39:59;;;;;;;1.10;1.00;;;8.10;98.00;;;;;;5052780;28;20454;-67
2024/01/04 04:42:28;;;;;;;1.10;0.90;;;8.10;98.00;;;;;;5035078;28;20460;-66
2024/01/04 04:44:55;;;;;;;1.60;1.20;;;8.10;98.00;;;;;;5052899;28;20452;-66
2024/01/04 04:47:22;;;;;;;3.77;1.30;;;8.10;98.00;;;;;;5052769;28;20492;-66
2024/01/04 04:49:50;;;;;;;1.10;1.00;;;8.10;98.00;;;;;;5052661;28;20457;-66
2024/01/04 04:52:17;;;;;;;1.57;1.10;;;8.10;98.00;;;;;;5052659;28;20468;-66
2024/01/04 04:54:44;;;;;;;1.30;1.10;;;8.20;98.00;;;;;;5052128;28;20447;-66
2024/01/04 04:57:12;;;;;;;1.17;1.10;;;8.20;98.00;;;;;;5052399;28;20459;-66
2024/01/04 04:59:40;;;;;;;1.10;1.00;;;8.10;98.00;;;;;;5052504;28;20455;-67
2024/01/04 05:02:07;;;;;;;4.33;1.30;;;8.10;98.00;;;;;;5052331;28;20790;-66
2024/01/04 05:04:34;;;;;;;1.60;1.30;;;8.10;98.00;;;;;;5052380;28;20453;-66
2024/01/04 05:07:01;;;;;;;2.13;1.10;;;8.10;98.00;;;;;;5052443;28;20581;-66
2024/01/04 05:09:28;;;;;;;1.30;1.07;;;8.10;98.00;;;;;;5052230;28;20568;-67
2024/01/04 05:11:55;;;;;;;1.80;1.10;;;8.10;98.00;;;;;;5052175;28;20471;-66
2024/01/04 05:14:22;;;;;;;1.27;1.20;;;8.00;98.00;;;;;;5051910;28;20471;-66
2024/01/04 05:16:54;;;;;;;1.10;1.00;;;8.00;98.00;;;;;;5052143;28;20472;-66
2024/01/04 05:19:21;;;;;;;3.70;1.23;;;8.00;98.00;;;;;;5052122;28;20547;-67
2024/01/04 05:21:48;;;;;;;1.60;1.20;;;7.90;98.00;;;;;;5052004;28;20452;-66
2024/01/04 05:24:15;;;;;;;2.13;1.03;;;7.90;98.00;;;;;;5051973;28;20448;-66
2024/01/04 05:26:42;;;;;;;1.30;1.10;;;7.90;98.00;;;;;;5052091;28;20478;-66
2024/01/04 05:29:10;;;;;;;2.27;1.10;;;7.80;98.00;;;;;;5034344;28;20455;-66
2024/01/04 05:31:37;;;;;;;1.30;1.17;;;7.80;98.00;;;;;;5051966;28;20506;-66
2024/01/04 05:34:06;;;;;;;3.00;1.23;;;7.80;98.00;;;;;;5052031;28;20452;-66
2024/01/04 05:36:34;;;;;;;2.90;1.00;;;7.80;98.00;;;;;;5051976;28;20453;-66
2024/01/04 05:39:03;;;;;;;1.30;1.00;;;7.80;98.00;;;;;;5034145;28;20468;-66
2024/01/04 05:41:30;;;;;;;1.83;1.10;;;7.80;98.00;;;;;;5034380;28;20866;-67
2024/01/04 05:43:58;;;;;;;1.20;1.10;;;7.80;98.00;;;;;;5051853;28;20453;-66
2024/01/04 05:46:25;;;;;;;1.10;1.10;;;7.80;98.00;;;;;;5051549;28;20480;-66
2024/01/04 05:48:52;;;;;;;3.63;1.10;;;7.80;98.00;;;;;;5051632;28;20451;-66
2024/01/04 05:51:20;;;;;;;2.07;1.10;;;7.90;98.00;;;;;;5051581;28;20460;-67
2024/01/04 05:53:47;;;;;;;1.57;1.10;;;7.80;98.00;;;;;;5051428;28;21015;-66
2024/01/04 05:56:14;;;;;;;4.40;1.30;;;7.80;98.00;;;;;;5051386;28;20460;-66
2024/01/04 05:58:41;;;;;;;2.50;1.23;;;7.80;98.00;;;;;;5051388;28;20514;-66
2024/01/04 06:01:09;;;;;;;2.10;1.10;;;7.80;98.00;;;;;;5051128;28;20456;-66
2024/01/04 06:03:36;;;;;;;3.30;1.10;;;7.80;98.00;;;;;;5051611;28;20543;-66
2024/01/04 06:06:03;;;;;;;1.70;1.13;;;7.80;98.00;;;;;;5050108;28;20539;-67
2024/01/04 06:08:31;;;;;;;1.80;1.20;;;7.80;98.00;;;;;;5051380;28;20445;-67
2024/01/04 06:10:58;;;;;;;1.30;1.00;;;7.80;98.00;;;;;;5051049;28;20461;-67
2024/01/04 06:13:27;;;;;;;1.20;1.10;;;7.80;98.00;;;;;;5051127;28;20455;-66
2024/01/04 06:15:56;;;;;;;1.30;1.10;;;7.80;98.00;;;;;;5051061;28;20447;-66
2024/01/04 06:18:23;;;;;;;2.07;1.30;;;7.90;98.00;;;;;;5051139;28;20496;-66
2024/01/04 06:20:50;;;;;;;2.30;1.03;;;7.90;98.00;;;;;;5033593;28;20470;-66
2024/01/04 06:23:18;;;;;;;1.17;1.00;;;7.80;98.00;;;;;;5051013;28;20509;-66
2024/01/04 06:25:46;;;;;;;1.20;1.10;;;7.80;98.00;;;;;;5051134;28;20836;-67
2024/01/04 06:28:13;;;;;;;1.23;1.17;;;7.80;98.00;;;;;;5051058;28;20487;-66
2024/01/04 06:30:41;;;;;;;1.57;1.20;;;7.80;98.00;;;;;;5051110;28;20459;-66
2024/01/04 06:33:08;;;;;;;1.70;1.20;;;7.80;98.00;;;;;;5015609;28;20962;-66
2024/01/04 06:35:35;;;;;;;1.20;1.00;;;7.80;98.00;;;;;;5051257;28;20454;-66
2024/01/04 06:38:04;;;;;;;2.33;1.10;;;7.80;98.00;;;;;;5050816;28;20450;-66
2024/01/04 06:40:31;;;;;;;1.93;1.20;;;7.80;98.00;;;;;;5051115;28;20465;-66
2024/01/04 06:43:00;;;;;;;3.13;1.20;;;7.80;98.00;;;;;;5050889;28;20447;-66
2024/01/04 06:45:27;;;;;;;1.73;1.20;;;7.80;98.00;;;;;;5051144;28;20870;-66
2024/01/04 06:47:56;;;;;;;1.30;1.10;;;7.80;98.00;;;;;;5050681;28;20983;-66
2024/01/04 06:50:23;;;;;;;8.90;1.27;;;7.80;98.00;;;;;;5050870;28;20499;-67
2024/01/04 06:52:50;;;;;;;1.87;1.10;;;7.80;98.00;;;;;;5050880;28;20951;-67
2024/01/04 06:55:18;;;;;;;3.10;1.23;;;7.80;98.00;;;;;;5050775;28;20983;-66
2024/01/04 06:57:45;;;;;;;1.30;1.10;;;7.90;98.00;;;;;;5050702;28;20501;-66
2024/01/04 07:00:15;;;;;;;2.70;1.07;;;7.90;98.00;;;;;;5051234;28;20455;-68
2024/01/04 07:02:45;;;;;;;1.97;1.23;;;7.90;98.00;;;;;;5050706;28;20508;-69
2024/01/04 07:05:12;;;;;;;5.00;1.27;;;7.90;98.00;;;;;;5050440;28;20468;-70
2024/01/04 07:07:39;;;;;;;2.53;1.20;;;7.90;98.00;;;;;;5050372;28;20494;-70
2024/01/04 07:10:08;;;;;;;3.23;1.13;;;7.90;98.00;;;;;;5050759;28;20456;-70
2024/01/04 07:12:35;;;;;;;3.13;1.10;;;7.90;98.00;;;;;;5033092;28;20467;-70
2024/01/04 07:15:02;;;;;;;1.47;1.10;;;7.80;98.00;;;;;;5050724;28;20532;-69
2024/01/04 07:17:31;;;;;;;3.87;1.27;;;7.90;98.00;;;;;;5052482;28;20460;-70
2024/01/04 07:19:58;;;;;;;3.30;1.30;;;7.90;98.00;;;;;;5054731;28;20465;-70
2024/01/04 07:22:25;;;;;;;1.50;1.10;;;7.90;98.00;;;;;;5054670;28;20458;-70
2024/01/04 07:24:52;;;;;;;2.90;1.30;;;7.90;98.00;;;;;;5036963;28;20455;-70
2024/01/04 07:27:20;;;;;;;2.80;1.40;;;7.90;98.00;;;;;;5054343;28;20478;-70
2024/01/04 07:29:47;;;;;;;2.23;1.20;;;8.00;98.00;;;;;;5054616;28;20534;-70
2024/01/04 07:32:18;;;;;;;1.70;1.00;;;7.90;98.00;;;;;;5054770;28;20482;-70
2024/01/04 07:34:47;;;;;;;1.63;1.20;;;8.00;98.00;;;;;;5054562;28;20463;-69
2024/01/04 07:37:14;;;;;;;2.37;1.40;;;7.90;98.00;;;;;;5054233;28;20482;-69
2024/01/04 07:39:41;;;;;;;2.50;1.20;;;7.90;98.00;;;;;;5036509;28;20459;-69
2024/01/04 07:42:10;;;;;;;3.60;1.43;;;7.90;98.00;;;;;;5054101;28;20462;-69
2024/01/04 07:44:37;;;;;;;1.40;1.30;;;7.90;98.00;;;;;;5054174;28;20452;-70
2024/01/04 07:47:04;;;;;;;3.77;1.40;;;7.90;98.00;;;;;;5054210;28;20515;-69
2024/01/04 07:49:31;;;;;;;1.83;1.23;;;8.00;98.00;;;;;;5054075;28;20465;-69
2024/01/04 07:52:00;;;;;;;3.70;1.10;;;8.00;98.00;;;;;;5053853;28;20446;-69
2024/01/04 07:54:27;;;;;;;4.20;1.30;;;8.10;98.00;;;;;;5053902;28;20518;-69
2024/01/04 07:56:54;;;;;;;2.50;1.20;;;8.10;98.00;;;;;;5036149;28;20454;-69
2024/01/04 07:59:22;;;;;;;3.17;1.57;;;8.00;98.00;;;;;;5053986;28;20476;-69
2024/01/04 08:01:49;;;;;;;1.40;1.10;;;8.00;98.00;;;;;;5053833;28;21061;-70
2024/01/04 08:04:16;;;;;;;2.80;1.53;;;8.00;98.00;;;;;;5053645;28;20460;-70
2024/01/04 08:06:44;;;;;;;1.53;1.13;;;8.00;98.00;;;;;;5052960;28;20958;-69
2024/01/04 08:09:21;;;;;;;2.20;1.13;;;8.00;98.00;;;;;;5036007;28;20457;-70
2024/01/04 08:11:48;;;;;;;1.43;1.20;;;8.00;98.00;;;;;;5053530;28;20552;-70
2024/01/04 08:14:15;;;;;;;3.67;1.40;;;8.00;98.00;;;;;;5053593;28;20950;-69
2024/01/04 08:16:44;;;;;;;2.73;1.20;;;8.00;98.00;;;;;;5053369;28;20453;-69
2024/01/04 08:19:11;;;;;;;1.57;1.30;;;8.00;98.00;;;;;;5053374;28;20449;-69
2024/01/04 08:21:38;;;;;;;1.73;1.00;;;8.00;98.00;;;;;;5053253;28;20447;-70
2024/01/04 08:24:06;;;;;;;2.83;1.30;;;8.00;98.00;;;;;;5035718;28;20469;-69
2024/01/04 08:26:35;;;;;;;1.67;1.30;;;8.10;98.00;;;;;;5035883;28;20452;-69
2024/01/04 08:29:02;;;;;;;2.03;1.20;;;8.10;98.00;;;;;;5034694;28;20489;-69
2024/01/04 08:31:29;;;;;;;2.13;1.27;;;8.10;98.00;;;;;;5053253;28;20447;-70
2024/01/04 08:33:57;;;;;;;2.20;1.33;;;8.10;98.00;;;;;;5053284;28;20886;-69
2024/01/04 08:36:24;;;;;;;2.53;1.30;;;8.10;98.00;;;;;;5035623;28;20450;-70
2024/01/04 08:38:53;;;;;;;3.00;1.20;;;8.10;98.00;;;;;;5053440;28;20500;-70
2024/01/04 08:41:20;;;;;;;3.63;1.60;;;8.20;98.00;;;;;;5053029;28;20448;-69
2024/01/04 08:43:48;;;;;;;3.03;1.60;;;8.20;98.00;;;;;;5053039;28;20464;-69
2024/01/04 08:46:17;;;;;;;9.10;1.57;;;8.20;98.00;;;;;;5052548;28;20457;-69
2024/01/04 08:48:45;;;;;;;2.17;1.30;;;8.20;98.00;;;;;;5052894;28;21001;-70
2024/01/04 08:51:12;;;;;;;2.13;1.40;;;8.20;98.00;;;;;;5052921;28;20459;-70
2024/01/04 08:53:40;;;;;;;1.77;1.17;;;8.20;98.00;;;;;;5053030;28;20456;-69
2024/01/04 08:56:08;;;;;;;1.70;1.20;;;8.20;98.00;;;;;;5052737;28;20451;-70
2024/01/04 08:58:36;;;;;;;2.37;1.43;;;8.20;98.00;;;;;;5052685;28;20462;-69
2024/01/04 09:01:06;;;;;;;2.70;1.37;;;8.20;98.00;;;;;;5035008;28;20447;-69
2024/01/04 09:03:33;;;;;;;1.77;1.23;;;8.20;98.00;;;;;;5052661;28;20473;-70
2024/01/04 09:06:00;;;;;;;1.30;1.10;;;8.20;98.00;;;;;;5052581;28;20473;-70
2024/01/04 09:08:27;;;;;;;1.30;1.20;;;8.20;98.00;;;;;;5052564;28;20484;-70
2024/01/04 09:10:55;;;;;;;2.40;1.20;;;8.20;98.00;;;;;;5052589;28;20457;-69
2024/01/04 09:13:22;;;;;;;4.30;1.30;;;8.30;98.00;;;;;;5034719;28;20453;-70
2024/01/04 09:15:49;;;;;;;2.47;1.27;;;8.30;98.00;;;;;;5052614;28;20467;-69
2024/01/04 09:18:17;;;;;;;1.70;1.20;;;8.50;98.00;;;;;;5052597;28;20509;-69
2024/01/04 09:20:44;;;;;;;2.43;1.27;;;8.50;98.00;;;;;;5035021;28;20448;-70
2024/01/04 09:23:11;;;;;;;2.80;1.20;;;8.60;98.00;;;;;;5034991;28;20448;-69
2024/01/04 09:25:38;;;;;;;2.20;1.33;;;8.60;98.00;;;;;;5052501;28;20819;-69
2024/01/04 09:28:06;;;;;;;4.90;1.20;;;8.70;98.00;;;;;;5051995;28;20488;-69
2024/01/04 09:30:33;;;;;;;1.40;1.20;;;8.70;98.00;;;;;;5034837;28;20460;-70
2024/01/04 09:33:01;;;;;;;1.30;1.20;;;8.70;98.00;;;;;;5052035;28;20479;-70
2024/01/04 09:35:30;;;;;;;2.60;1.40;;;8.80;98.00;;;;;;5034320;28;20952;-70
2024/01/04 09:37:57;;;;;;;1.37;1.17;;;8.90;98.00;;;;;;5051776;28;20465;-70
2024/01/04 09:40:24;;;;;;;3.03;1.30;;;8.90;98.00;;;;;;5052055;28;20816;-69
2024/01/04 09:42:56;;;;;;;2.90;1.50;;;8.90;98.00;;;;;;5051838;28;20461;-70
2024/01/04 09:45:23;;;;;;;2.77;1.10;;;8.90;98.00;;;;;;5051943;28;20552;-69
2024/01/04 09:47:53;;;;;;;2.90;1.30;;;8.90;98.00;;;;;;5051566;28;20481;-70
2024/01/04 09:50:21;;;;;;;3.67;1.57;;;9.00;98.00;;;;;;5051834;28;20493;-70
2024/01/04 09:52:55;;;;;;;1.30;1.10;;;9.10;98.00;;;;;;5033707;28;20458;-69
2024/01/04 09:55:25;;;;;;;2.07;1.20;;;9.10;98.00;;;;;;5051629;28;20555;-69
2024/01/04 09:57:52;;;;;;;3.70;1.37;;;9.20;98.00;;;;;;5033978;28;20456;-69
2024/01/04 10:00:20;;;;;;;2.03;1.30;;;9.30;98.00;;;;;;5033985;28;20460;-70
2024/01/04 10:02:49;;;;;;;3.73;1.33;;;9.40;98.00;;;;;;5051409;28;20445;-70
2024/01/04 10:05:17;;;;;;;1.40;1.20;;;9.50;98.00;;;;;;5051344;28;20948;-69
2024/01/04 10:07:54;;;;;;;2.10;1.47;;;9.50;98.00;;;;;;5051602;28;20489;-70
2024/01/04 10:10:28;;;;;;;3.20;1.20;;;9.50;98.00;;;;;;5051577;28;20442;-70
2024/01/04 10:12:57;;;;;;;3.00;1.33;;;9.50;98.00;;;;;;5051450;28;20462;-69
2024/01/04 10:15:24;;;;;;;4.70;1.50;;;9.50;98.00;;;;;;5051445;28;20464;-70
2024/01/04 10:17:53;;;;;;;3.67;1.20;;;9.50;98.00;;;;;;5051320;28;20467;-70
2024/01/04 10:20:21;;;;;;;5.10;1.40;;;9.50;98.00;;;;;;5051243;28;20465;-69
2024/01/04 10:22:49;;;;;;;4.20;1.40;;;9.50;98.00;;;;;;5051186;28;20987;-70
2024/01/04 10:25:18;;;;;;;6.00;1.30;;;9.60;98.00;;;;;;5051514;28;20458;-69
2024/01/04 10:27:56;;;;;;;2.43;1.13;;;9.60;98.00;;;;;;5051153;28;20902;-70
2024/01/04 10:30:23;;;;;;;3.33;1.40;;;9.60;98.00;;;;;;5051302;28;20459;-69
2024/01/04 10:32:50;;;;;;;5.27;1.30;;;9.60;98.00;;;;;;5051073;28;20450;-70
2024/01/04 10:35:26;;;;;;;1.37;1.20;;;9.60;98.00;;;;;;5051348;28;20457;-70
2024/01/04 10:38:01;;;;;;;2.57;1.20;;;9.50;98.00;;;;;;5051286;28;20461;-70
2024/01/04 10:40:28;;;;;;;1.30;1.10;;;9.50;98.00;;;;;;5051088;28;20975;-69
2024/01/04 10:42:57;;;;;;;1.90;1.47;;;9.40;98.00;;;;;;5033434;28;20447;-70
2024/01/04 10:45:29;;;;;;;1.80;1.30;;;9.40;98.00;;;;;;5051120;28;20461;-70
2024/01/04 10:47:56;;;;;;;5.03;1.20;;;9.30;98.00;;;;;;5050894;28;20577;-69
2024/01/04 10:50:24;;;;;;;3.20;1.63;;;9.30;98.00;;;;;;5051062;28;20795;-70
2024/01/04 10:52:54;;;;;;;1.97;1.27;;;9.10;98.00;;;;;;5053423;28;20894;-70
2024/01/04 10:55:22;;;;;;;2.87;1.40;;;9.00;98.00;;;;;;5055421;28;20453;-69
2024/01/04 10:57:52;;;;;;;3.00;1.30;;;8.90;98.00;;;;;;5055018;28;20551;-69
2024/01/04 11:00:21;;;;;;;3.00;1.30;;;8.90;98.00;;;;;;5055048;28;20454;-69
2024/01/04 11:02:51;;;;;;;1.40;1.20;;;8.80;98.00;;;;;;5054847;28;20464;-69
2024/01/04 11:05:20;;;;;;;1.67;1.63;;;8.70;98.00;;;;;;5037423;28;20840;-70
2024/01/04 11:07:48;;;;;;;2.60;1.40;;;8.70;98.00;;;;;;5037447;28;20454;-69
2024/01/04 11:10:16;;;;;;;2.03;1.30;;;8.70;98.00;;;;;;5055127;28;20482;-70
2024/01/04 11:12:44;;;;;;;3.47;1.97;;;8.60;98.00;;;;;;5037362;28;20449;-70
2024/01/04 11:15:14;;;;;;;5.10;1.47;;;8.60;98.00;;;;;;5054833;28;20966;-70
2024/01/04 11:18:00;;;;;;;1.50;1.40;;;8.70;98.00;;;;;;5054620;28;20700;-69
2024/01/04 11:20:52;;;;;;;2.10;1.33;;;8.80;98.00;;;;;;5054614;28;20478;-70
2024/01/04 11:23:51;;;;;;;1.67;1.20;;;8.80;98.00;;;;;;5054429;28;20445;-70
2024/01/04 11:26:27;;;;;;;2.27;1.10;;;8.90;98.00;;;;;;5054492;28;20539;-69
2024/01/04 11:28:56;;;;;;;1.63;1.10;;;9.00;98.00;;;;;;5054426;28;20828;-70
2024/01/04 11:31:25;;;;;;;2.63;1.10;;;9.10;98.00;;;;;;5054214;28;20546;-70
2024/01/04 11:33:54;;;;;;;1.40;1.20;;;9.10;98.00;;;;;;5054437;28;20543;-70
2024/01/04 11:36:23;;;;;;;3.67;1.30;;;9.30;98.00;;;;;;5054203;28;20445;-69
2024/01/04 11:38:50;;;;;;;3.53;1.30;;;9.30;98.00;;;;;;5054095;28;20449;-69
2024/01/04 11:41:17;;;;;;;6.87;1.30;;;9.30;98.00;;;;;;5054363;28;20471;-69
2024/01/04 11:43:45;;;;;;;1.50;1.20;;;9.30;98.00;;;;;;5054134;28;20449;-70
2024/01/04 11:46:23;;;;;;;2.23;1.20;;;9.30;98.00;;;;;;5054046;28;20511;-70
2024/01/04 11:48:56;;;;;;;1.67;1.17;;;9.40;98.00;;;;;;5054089;28;20905;-70
2024/01/04 11:51:33;;;;;;;2.90;1.40;;;9.40;98.00;;;;;;5053983;28;20459;-69
2024/01/04 11:54:01;;;;;;;2.23;1.27;;;9.50;98.00;;;;;;5053831;28;20457;-69
2024/01/04 11:56:28;;;;;;;1.70;1.20;;;9.60;98.00;;;;;;5053788;28;20453;-70
2024/01/04 11:59:07;;;;;;;2.70;1.27;;;9.70;98.00;;;;;;5054034;28;20450;-69
2024/01/04 12:01:36;;;;;;;2.70;1.40;;;9.80;98.00;;;;;;5053737;28;20967;-69
2024/01/04 12:04:12;;;;;;;2.90;1.30;;;9.80;98.00;;;;;;5052555;28;20461;-70
2024/01/04 12:06:41;;;;;;;5.07;1.60;;;9.80;98.00;;;;;;5053548;28;20466;-70
2024/01/04 12:09:09;;;;;;;1.83;1.40;;;9.90;98.00;;;;;;5036049;28;20486;-69
2024/01/04 12:11:36;;;;;;;2.80;1.47;;;9.80;98.00;;;;;;5053596;28;20459;-69
2024/01/04 12:14:05;;;;;;;1.87;1.47;;;9.70;98.00;;;;;;5053585;28;20465;-69
2024/01/04 12:16:32;;;;;;;1.83;1.20;;;9.60;98.00;;;;;;5053665;28;20450;-69
2024/01/04 12:19:01;;;;;;;1.30;1.20;;;9.40;98.00;;;;;;5035654;28;20452;-69
2024/01/04 12:21:30;;;;;;;2.00;1.20;;;9.30;98.00;;;;;;5053350;28;20959;-70
2024/01/04 12:23:58;;;;;;;2.60;1.40;;;9.20;98.00;;;;;;5053288;28;20447;-70
2024/01/04 12:26:26;;;;;;;2.93;1.30;;;8.90;98.00;;;;;;5035892;28;20852;-70
2024/01/04 12:28:55;;;;;;;1.70;1.27;;;9.10;98.00;;;;;;5053230;28;20586;-69
2024/01/04 12:31:24;;;;;;;1.30;1.17;;;9.50;98.00;;;;;;5053207;28;20464;-70
2024/01/04 12:33:53;;;;;;;1.70;1.30;;;9.90;98.00;;;;;;5053252;28;20869;-69
2024/01/04 12:36:22;;;;;;;1.93;1.20;;;10.10;98.00;;;;;;5035277;28;20450;-70
2024/01/04 12:38:52;;;;;;;1.60;1.17;;;10.10;98.00;;;;;;5053158;28;20480;-69
2024/01/04 12:41:27;;;;;;;2.60;1.27;;;10.30;98.00;;;;;;5053205;28;20454;-70
2024/01/04 12:43:56;;;;;;;1.67;1.10;;;10.20;98.00;;;;;;5053224;28;20454;-70
2024/01/04 12:46:23;;;;;;;1.60;1.20;;;10.00;98.00;;;;;;5053144;28;20484;-70
2024/01/04 12:48:51;;;;;;;1.70;1.30;;;9.80;98.00;;;;;;5052899;28;21018;-69
2024/01/04 12:51:26;;;;;;;1.20;1.10;;;9.70;98.00;;;;;;5053086;28;20453;-70
2024/01/04 12:53:55;;;;;;;1.80;1.20;;;9.60;98.00;;;;;;5052878;28;20451;-69
2024/01/04 12:56:22;;;;;;;1.80;1.20;;;9.80;98.00;;;;;;5052931;28;20468;-70
2024/01/04 12:58:50;;;;;;;1.50;1.20;;;10.00;98.00;;;;;;5035047;28;20481;-69
2024/01/04 13:01:20;;;;;;;2.80;1.47;;;10.10;98.00;;;;;;5052954;28;20960;-70
2024/01/04 13:03:49;;;;;;;2.57;1.50;;;10.10;98.00;;;;;;5052793;28;20466;-70